sensor_id;sensor_type;location;lat;lon;timestamp;P1;durP1;ratioP1;P2;durP2;ratioP2
52564;SDS011;38460;53.106;7.004;2023-07-29T00:02:08;11.70;;;7.70;;
52564;SDS011;38460;53.106;7.004;2023-07-29T00:04:34;8.15;;;7.07;;
52564;SDS011;38460;53.106;7.004;2023-07-29T00:07:00;11.73;;;8.30;;
52564;SDS011;38460;53.106;7.004;2023-07-29T00:09:25;9.80;;;7.45;;
52564;SDS011;38460;53.106;7.004;2023-07-29T00:11:51;10.57;;;7.05;;
52564;SDS011;38460;53.106;7.004;2023-07-29T00:14:17;9.30;;;6.97;;
52564;SDS011;38460;53.106;7.004;2023-07-29T00:16:42;10.77;;;7.53;;
52564;SDS011;38460;53.106;7.004;2023-07-29T00:19:08;10.13;;;7.18;;
52564;SDS011;38460;53.106;7.004;2023-07-29T00:21:34;12.43;;;7.70;;
52564;SDS011;38460;53.106;7.004;2023-07-29T00:24:00;9.45;;;7.43;;
52564;SDS011;38460;53.106;7.004;2023-07-29T00:26:26;8.50;;;6.60;;
52564;SDS011;38460;53.106;7.004;2023-07-29T00:28:54;12.73;;;7.03;;
52564;SDS011;38460;53.106;7.004;2023-07-29T00:31:21;12.60;;;7.75;;
52564;SDS011;38460;53.106;7.004;2023-07-29T00:33:46;10.00;;;6.32;;
52564;SDS011;38460;53.106;7.004;2023-07-29T00:36:12;10.80;;;7.47;;
52564;SDS011;38460;53.106;7.004;2023-07-29T00:38:38;11.98;;;7.45;;
52564;SDS011;38460;53.106;7.004;2023-07-29T00:41:04;10.18;;;7.50;;
52564;SDS011;38460;53.106;7.004;2023-07-29T00:43:30;9.00;;;6.40;;
52564;SDS011;38460;53.106;7.004;2023-07-29T00:45:56;12.52;;;7.53;;
52564;SDS011;38460;53.106;7.004;2023-07-29T00:48:22;11.93;;;7.63;;
52564;SDS011;38460;53.106;7.004;2023-07-29T00:50:49;10.05;;;7.32;;
52564;SDS011;38460;53.106;7.004;2023-07-29T00:53:15;10.02;;;6.97;;
52564;SDS011;38460;53.106;7.004;2023-07-29T00:55:41;9.18;;;7.10;;
52564;SDS011;38460;53.106;7.004;2023-07-29T00:58:07;15.93;;;7.38;;
52564;SDS011;38460;53.106;7.004;2023-07-29T01:00:33;10.30;;;7.57;;
52564;SDS011;38460;53.106;7.004;2023-07-29T01:02:59;10.52;;;7.38;;
52564;SDS011;38460;53.106;7.004;2023-07-29T01:05:25;11.80;;;7.82;;
52564;SDS011;38460;53.106;7.004;2023-07-29T01:08:21;11.38;;;8.07;;
52564;SDS011;38460;53.106;7.004;2023-07-29T01:16:00;14.50;;;8.43;;
52564;SDS011;38460;53.106;7.004;2023-07-29T01:18:35;15.88;;;9.70;;
52564;SDS011;38460;53.106;7.004;2023-07-29T01:21:03;14.07;;;9.68;;
52564;SDS011;38460;53.106;7.004;2023-07-29T01:23:33;11.95;;;9.07;;
52564;SDS011;38460;53.106;7.004;2023-07-29T01:25:59;15.07;;;9.35;;
52564;SDS011;38460;53.106;7.004;2023-07-29T01:28:25;11.57;;;8.52;;
52564;SDS011;38460;53.106;7.004;2023-07-29T01:30:57;12.43;;;8.57;;
52564;SDS011;38460;53.106;7.004;2023-07-29T01:34:01;13.23;;;8.95;;
52564;SDS011;38460;53.106;7.004;2023-07-29T01:36:34;12.77;;;9.52;;
52564;SDS011;38460;53.106;7.004;2023-07-29T01:39:05;14.90;;;10.32;;
52564;SDS011;38460;53.106;7.004;2023-07-29T01:41:32;12.63;;;8.65;;
52564;SDS011;38460;53.106;7.004;2023-07-29T01:43:59;12.93;;;8.82;;
52564;SDS011;38460;53.106;7.004;2023-07-29T01:46:25;11.32;;;8.48;;
52564;SDS011;38460;53.106;7.004;2023-07-29T01:48:51;14.93;;;9.00;;
52564;SDS011;38460;53.106;7.004;2023-07-29T01:51:16;12.55;;;8.32;;
52564;SDS011;38460;53.106;7.004;2023-07-29T01:53:42;14.00;;;8.88;;
52564;SDS011;38460;53.106;7.004;2023-07-29T01:56:08;12.82;;;8.65;;
52564;SDS011;38460;53.106;7.004;2023-07-29T01:58:33;14.90;;;10.02;;
52564;SDS011;38460;53.106;7.004;2023-07-29T02:00:59;14.13;;;8.43;;
52564;SDS011;38460;53.106;7.004;2023-07-29T02:03:25;13.35;;;8.98;;
52564;SDS011;38460;53.106;7.004;2023-07-29T02:05:50;12.50;;;8.98;;
52564;SDS011;38460;53.106;7.004;2023-07-29T02:08:16;13.02;;;9.45;;
52564;SDS011;38460;53.106;7.004;2023-07-29T02:10:42;13.30;;;9.18;;
52564;SDS011;38460;53.106;7.004;2023-07-29T02:13:10;13.60;;;9.32;;
52564;SDS011;38460;53.106;7.004;2023-07-29T02:15:36;13.27;;;8.63;;
52564;SDS011;38460;53.106;7.004;2023-07-29T02:18:01;13.45;;;8.07;;
52564;SDS011;38460;53.106;7.004;2023-07-29T02:20:28;11.65;;;8.43;;
52564;SDS011;38460;53.106;7.004;2023-07-29T02:22:54;13.93;;;8.95;;
52564;SDS011;38460;53.106;7.004;2023-07-29T02:25:20;12.15;;;8.18;;
52564;SDS011;38460;53.106;7.004;2023-07-29T02:27:45;10.95;;;8.05;;
52564;SDS011;38460;53.106;7.004;2023-07-29T02:30:11;11.05;;;8.05;;
52564;SDS011;38460;53.106;7.004;2023-07-29T02:32:37;11.32;;;7.43;;
52564;SDS011;38460;53.106;7.004;2023-07-29T02:35:03;12.75;;;8.32;;
52564;SDS011;38460;53.106;7.004;2023-07-29T02:37:30;10.52;;;8.48;;
52564;SDS011;38460;53.106;7.004;2023-07-29T02:39:55;13.27;;;8.52;;
52564;SDS011;38460;53.106;7.004;2023-07-29T02:42:21;13.25;;;7.88;;
52564;SDS011;38460;53.106;7.004;2023-07-29T02:44:47;10.63;;;7.07;;
52564;SDS011;38460;53.106;7.004;2023-07-29T02:47:12;11.05;;;7.22;;
52564;SDS011;38460;53.106;7.004;2023-07-29T02:49:38;11.32;;;7.10;;
52564;SDS011;38460;53.106;7.004;2023-07-29T02:52:04;12.70;;;7.50;;
52564;SDS011;38460;53.106;7.004;2023-07-29T02:54:30;11.80;;;8.02;;
52564;SDS011;38460;53.106;7.004;2023-07-29T02:56:55;11.23;;;7.60;;
52564;SDS011;38460;53.106;7.004;2023-07-29T02:59:21;12.02;;;7.88;;
52564;SDS011;38460;53.106;7.004;2023-07-29T03:01:47;9.07;;;7.13;;
52564;SDS011;38460;53.106;7.004;2023-07-29T03:04:13;12.60;;;7.72;;
52564;SDS011;38460;53.106;7.004;2023-07-29T03:06:38;11.15;;;7.68;;
52564;SDS011;38460;53.106;7.004;2023-07-29T03:09:04;12.13;;;8.13;;
52564;SDS011;38460;53.106;7.004;2023-07-29T03:11:30;12.50;;;8.75;;
52564;SDS011;38460;53.106;7.004;2023-07-29T03:13:56;11.35;;;7.72;;
52564;SDS011;38460;53.106;7.004;2023-07-29T03:16:22;11.38;;;7.75;;
52564;SDS011;38460;53.106;7.004;2023-07-29T03:18:48;10.13;;;6.72;;
52564;SDS011;38460;53.106;7.004;2023-07-29T03:21:14;13.00;;;8.07;;
52564;SDS011;38460;53.106;7.004;2023-07-29T03:23:40;11.48;;;7.90;;
52564;SDS011;38460;53.106;7.004;2023-07-29T03:26:06;12.27;;;7.28;;
52564;SDS011;38460;53.106;7.004;2023-07-29T03:28:35;10.68;;;7.63;;
52564;SDS011;38460;53.106;7.004;2023-07-29T03:31:05;13.55;;;7.38;;
52564;SDS011;38460;53.106;7.004;2023-07-29T03:33:31;13.27;;;8.00;;
52564;SDS011;38460;53.106;7.004;2023-07-29T03:35:57;14.07;;;7.50;;
52564;SDS011;38460;53.106;7.004;2023-07-29T03:38:22;10.30;;;6.97;;
52564;SDS011;38460;53.106;7.004;2023-07-29T03:40:48;12.70;;;7.32;;
52564;SDS011;38460;53.106;7.004;2023-07-29T03:43:14;14.30;;;7.85;;
52564;SDS011;38460;53.106;7.004;2023-07-29T03:45:40;12.40;;;8.15;;
52564;SDS011;38460;53.106;7.004;2023-07-29T03:48:06;11.45;;;7.38;;
52564;SDS011;38460;53.106;7.004;2023-07-29T03:50:35;11.70;;;7.30;;
52564;SDS011;38460;53.106;7.004;2023-07-29T03:53:02;11.82;;;7.22;;
52564;SDS011;38460;53.106;7.004;2023-07-29T03:55:28;12.35;;;7.57;;
52564;SDS011;38460;53.106;7.004;2023-07-29T03:57:55;12.07;;;7.13;;
52564;SDS011;38460;53.106;7.004;2023-07-29T04:00:22;11.60;;;7.53;;
52564;SDS011;38460;53.106;7.004;2023-07-29T04:02:48;11.43;;;7.55;;
52564;SDS011;38460;53.106;7.004;2023-07-29T04:05:14;12.75;;;7.45;;
52564;SDS011;38460;53.106;7.004;2023-07-29T04:07:39;10.50;;;7.40;;
52564;SDS011;38460;53.106;7.004;2023-07-29T04:10:05;12.73;;;7.85;;
52564;SDS011;38460;53.106;7.004;2023-07-29T04:12:32;11.98;;;8.02;;
52564;SDS011;38460;53.106;7.004;2023-07-29T04:14:58;10.48;;;6.80;;
52564;SDS011;38460;53.106;7.004;2023-07-29T04:17:23;8.60;;;6.53;;
52564;SDS011;38460;53.106;7.004;2023-07-29T04:19:49;10.38;;;7.25;;
52564;SDS011;38460;53.106;7.004;2023-07-29T04:22:15;10.43;;;6.60;;
52564;SDS011;38460;53.106;7.004;2023-07-29T04:24:41;11.73;;;7.05;;
52564;SDS011;38460;53.106;7.004;2023-07-29T04:27:07;12.07;;;7.13;;
52564;SDS011;38460;53.106;7.004;2023-07-29T04:29:33;9.63;;;6.60;;
52564;SDS011;38460;53.106;7.004;2023-07-29T04:32:01;10.70;;;6.53;;
52564;SDS011;38460;53.106;7.004;2023-07-29T04:34:27;11.57;;;7.38;;
52564;SDS011;38460;53.106;7.004;2023-07-29T04:36:53;10.73;;;6.20;;
52564;SDS011;38460;53.106;7.004;2023-07-29T04:39:19;9.88;;;7.55;;
52564;SDS011;38460;53.106;7.004;2023-07-29T04:41:44;10.60;;;7.00;;
52564;SDS011;38460;53.106;7.004;2023-07-29T04:44:10;9.40;;;6.45;;
52564;SDS011;38460;53.106;7.004;2023-07-29T04:46:36;8.98;;;5.93;;
52564;SDS011;38460;53.106;7.004;2023-07-29T04:49:02;11.30;;;6.40;;
52564;SDS011;38460;53.106;7.004;2023-07-29T04:51:27;9.55;;;6.30;;
52564;SDS011;38460;53.106;7.004;2023-07-29T04:53:54;9.57;;;5.88;;
52564;SDS011;38460;53.106;7.004;2023-07-29T04:56:19;9.15;;;5.72;;
52564;SDS011;38460;53.106;7.004;2023-07-29T04:58:45;8.75;;;5.63;;
52564;SDS011;38460;53.106;7.004;2023-07-29T05:01:11;10.27;;;5.55;;
52564;SDS011;38460;53.106;7.004;2023-07-29T05:03:36;8.85;;;4.97;;
52564;SDS011;38460;53.106;7.004;2023-07-29T05:06:04;8.15;;;4.60;;
52564;SDS011;38460;53.106;7.004;2023-07-29T05:08:30;7.25;;;4.70;;
52564;SDS011;38460;53.106;7.004;2023-07-29T05:10:56;6.57;;;4.13;;
52564;SDS011;38460;53.106;7.004;2023-07-29T05:13:22;6.38;;;4.43;;
52564;SDS011;38460;53.106;7.004;2023-07-29T05:15:48;9.55;;;5.05;;
52564;SDS011;38460;53.106;7.004;2023-07-29T05:18:15;7.63;;;5.00;;
52564;SDS011;38460;53.106;7.004;2023-07-29T05:20:41;7.93;;;5.10;;
52564;SDS011;38460;53.106;7.004;2023-07-29T05:23:07;8.45;;;4.53;;
52564;SDS011;38460;53.106;7.004;2023-07-29T05:25:33;8.57;;;5.13;;
52564;SDS011;38460;53.106;7.004;2023-07-29T05:28:02;7.05;;;5.05;;
52564;SDS011;38460;53.106;7.004;2023-07-29T05:30:28;6.93;;;5.00;;
52564;SDS011;38460;53.106;7.004;2023-07-29T05:32:56;5.95;;;4.40;;
52564;SDS011;38460;53.106;7.004;2023-07-29T05:35:22;8.02;;;5.78;;
52564;SDS011;38460;53.106;7.004;2023-07-29T05:37:48;7.10;;;4.18;;
52564;SDS011;38460;53.106;7.004;2023-07-29T05:40:14;7.15;;;4.85;;
52564;SDS011;38460;53.106;7.004;2023-07-29T05:42:40;5.93;;;3.90;;
52564;SDS011;38460;53.106;7.004;2023-07-29T05:45:06;7.68;;;3.72;;
52564;SDS011;38460;53.106;7.004;2023-07-29T05:47:32;5.90;;;3.30;;
52564;SDS011;38460;53.106;7.004;2023-07-29T05:49:58;5.72;;;2.97;;
52564;SDS011;38460;53.106;7.004;2023-07-29T05:52:25;5.03;;;3.22;;
52564;SDS011;38460;53.106;7.004;2023-07-29T05:54:50;4.75;;;3.00;;
52564;SDS011;38460;53.106;7.004;2023-07-29T05:57:16;4.95;;;3.38;;
52564;SDS011;38460;53.106;7.004;2023-07-29T05:59:42;4.88;;;2.70;;
52564;SDS011;38460;53.106;7.004;2023-07-29T06:02:07;5.45;;;3.20;;
52564;SDS011;38460;53.106;7.004;2023-07-29T06:04:33;5.50;;;2.83;;
52564;SDS011;38460;53.106;7.004;2023-07-29T06:06:59;5.28;;;3.20;;
52564;SDS011;38460;53.106;7.004;2023-07-29T06:09:25;5.90;;;3.38;;
52564;SDS011;38460;53.106;7.004;2023-07-29T06:11:51;5.60;;;3.15;;
52564;SDS011;38460;53.106;7.004;2023-07-29T06:14:17;5.50;;;2.90;;
52564;SDS011;38460;53.106;7.004;2023-07-29T06:16:42;5.38;;;2.80;;
52564;SDS011;38460;53.106;7.004;2023-07-29T06:19:08;11.25;;;3.05;;
52564;SDS011;38460;53.106;7.004;2023-07-29T06:21:34;6.13;;;3.22;;
52564;SDS011;38460;53.106;7.004;2023-07-29T06:24:01;4.70;;;2.92;;
52564;SDS011;38460;53.106;7.004;2023-07-29T06:26:27;5.55;;;3.63;;
52564;SDS011;38460;53.106;7.004;2023-07-29T06:28:53;6.25;;;3.22;;
52564;SDS011;38460;53.106;7.004;2023-07-29T06:31:19;5.95;;;2.90;;
52564;SDS011;38460;53.106;7.004;2023-07-29T06:33:45;5.03;;;3.28;;
52564;SDS011;38460;53.106;7.004;2023-07-29T06:36:11;4.55;;;2.88;;
52564;SDS011;38460;53.106;7.004;2023-07-29T06:38:37;6.07;;;3.15;;
52564;SDS011;38460;53.106;7.004;2023-07-29T06:41:03;4.55;;;2.80;;
52564;SDS011;38460;53.106;7.004;2023-07-29T06:43:30;4.97;;;2.65;;
52564;SDS011;38460;53.106;7.004;2023-07-29T06:45:58;3.90;;;2.42;;
52564;SDS011;38460;53.106;7.004;2023-07-29T06:48:24;6.10;;;2.83;;
52564;SDS011;38460;53.106;7.004;2023-07-29T06:50:50;6.05;;;3.17;;
52564;SDS011;38460;53.106;7.004;2023-07-29T06:53:16;5.05;;;2.85;;
52564;SDS011;38460;53.106;7.004;2023-07-29T06:55:42;8.65;;;2.78;;
52564;SDS011;38460;53.106;7.004;2023-07-29T06:58:08;6.30;;;2.92;;
52564;SDS011;38460;53.106;7.004;2023-07-29T07:00:34;7.20;;;3.35;;
52564;SDS011;38460;53.106;7.004;2023-07-29T07:03:00;5.60;;;2.83;;
52564;SDS011;38460;53.106;7.004;2023-07-29T07:05:26;6.07;;;2.97;;
52564;SDS011;38460;53.106;7.004;2023-07-29T07:07:52;5.28;;;3.00;;
52564;SDS011;38460;53.106;7.004;2023-07-29T07:10:17;5.35;;;2.78;;
52564;SDS011;38460;53.106;7.004;2023-07-29T07:12:43;5.80;;;3.58;;
52564;SDS011;38460;53.106;7.004;2023-07-29T07:15:09;4.53;;;2.80;;
52564;SDS011;38460;53.106;7.004;2023-07-29T07:17:35;6.78;;;3.60;;
52564;SDS011;38460;53.106;7.004;2023-07-29T07:20:01;8.50;;;4.07;;
52564;SDS011;38460;53.106;7.004;2023-07-29T07:22:27;7.82;;;3.65;;
52564;SDS011;38460;53.106;7.004;2023-07-29T07:24:52;7.20;;;3.97;;
52564;SDS011;38460;53.106;7.004;2023-07-29T07:27:18;8.23;;;3.38;;
52564;SDS011;38460;53.106;7.004;2023-07-29T07:29:44;10.88;;;3.67;;
52564;SDS011;38460;53.106;7.004;2023-07-29T07:32:09;7.43;;;3.92;;
52564;SDS011;38460;53.106;7.004;2023-07-29T07:34:35;5.95;;;3.72;;
52564;SDS011;38460;53.106;7.004;2023-07-29T07:37:01;7.60;;;4.47;;
52564;SDS011;38460;53.106;7.004;2023-07-29T07:39:28;10.23;;;3.85;;
52564;SDS011;38460;53.106;7.004;2023-07-29T07:41:54;6.90;;;3.38;;
52564;SDS011;38460;53.106;7.004;2023-07-29T07:44:20;7.25;;;3.85;;
52564;SDS011;38460;53.106;7.004;2023-07-29T07:46:46;6.88;;;4.38;;
52564;SDS011;38460;53.106;7.004;2023-07-29T07:49:12;8.30;;;4.72;;
52564;SDS011;38460;53.106;7.004;2023-07-29T07:51:38;9.27;;;4.68;;
52564;SDS011;38460;53.106;7.004;2023-07-29T07:54:04;8.18;;;4.72;;
52564;SDS011;38460;53.106;7.004;2023-07-29T07:56:30;10.25;;;5.40;;
52564;SDS011;38460;53.106;7.004;2023-07-29T07:58:55;8.38;;;6.18;;
52564;SDS011;38460;53.106;7.004;2023-07-29T08:01:21;8.25;;;6.50;;
52564;SDS011;38460;53.106;7.004;2023-07-29T08:03:47;9.30;;;6.30;;
52564;SDS011;38460;53.106;7.004;2023-07-29T08:06:12;7.10;;;5.82;;
52564;SDS011;38460;53.106;7.004;2023-07-29T08:08:38;9.48;;;5.38;;
52564;SDS011;38460;53.106;7.004;2023-07-29T08:11:04;7.55;;;6.03;;
52564;SDS011;38460;53.106;7.004;2023-07-29T08:13:30;7.20;;;5.13;;
52564;SDS011;38460;53.106;7.004;2023-07-29T08:15:56;10.32;;;6.32;;
52564;SDS011;38460;53.106;7.004;2023-07-29T08:18:22;8.68;;;6.15;;
52564;SDS011;38460;53.106;7.004;2023-07-29T08:20:54;10.68;;;6.53;;
52564;SDS011;38460;53.106;7.004;2023-07-29T08:23:25;9.55;;;6.25;;
52564;SDS011;38460;53.106;7.004;2023-07-29T08:25:54;9.35;;;6.47;;
52564;SDS011;38460;53.106;7.004;2023-07-29T08:28:26;8.77;;;6.30;;
52564;SDS011;38460;53.106;7.004;2023-07-29T08:30:56;8.30;;;5.90;;
52564;SDS011;38460;53.106;7.004;2023-07-29T08:33:22;8.80;;;6.28;;
52564;SDS011;38460;53.106;7.004;2023-07-29T08:35:47;11.25;;;6.47;;
52564;SDS011;38460;53.106;7.004;2023-07-29T08:38:13;8.80;;;6.40;;
52564;SDS011;38460;53.106;7.004;2023-07-29T08:40:45;8.90;;;6.35;;
52564;SDS011;38460;53.106;7.004;2023-07-29T08:43:30;8.10;;;6.15;;
52564;SDS011;38460;53.106;7.004;2023-07-29T08:45:57;10.73;;;6.57;;
52564;SDS011;38460;53.106;7.004;2023-07-29T08:48:45;8.80;;;5.80;;
52564;SDS011;38460;53.106;7.004;2023-07-29T08:51:11;6.47;;;5.75;;
52564;SDS011;38460;53.106;7.004;2023-07-29T08:53:38;8.20;;;6.07;;
52564;SDS011;38460;53.106;7.004;2023-07-29T08:56:04;7.82;;;5.30;;
52564;SDS011;38460;53.106;7.004;2023-07-29T08:58:32;7.45;;;5.45;;
52564;SDS011;38460;53.106;7.004;2023-07-29T09:00:58;7.35;;;5.00;;
52564;SDS011;38460;53.106;7.004;2023-07-29T09:03:24;8.77;;;5.43;;
52564;SDS011;38460;53.106;7.004;2023-07-29T09:05:50;5.55;;;4.63;;
52564;SDS011;38460;53.106;7.004;2023-07-29T09:08:16;6.88;;;4.90;;
52564;SDS011;38460;53.106;7.004;2023-07-29T09:10:43;5.75;;;4.47;;
52564;SDS011;38460;53.106;7.004;2023-07-29T09:13:08;9.45;;;4.50;;
52564;SDS011;38460;53.106;7.004;2023-07-29T09:15:35;6.55;;;4.22;;
52564;SDS011;38460;53.106;7.004;2023-07-29T09:20:58;7.40;;;4.00;;
52564;SDS011;38460;53.106;7.004;2023-07-29T09:26:02;6.80;;;4.15;;
52564;SDS011;38460;53.106;7.004;2023-07-29T09:28:32;6.55;;;4.13;;
52564;SDS011;38460;53.106;7.004;2023-07-29T09:31:05;10.20;;;4.22;;
52564;SDS011;38460;53.106;7.004;2023-07-29T09:33:35;6.35;;;3.95;;
52564;SDS011;38460;53.106;7.004;2023-07-29T09:36:02;8.57;;;4.05;;
52564;SDS011;38460;53.106;7.004;2023-07-29T09:38:35;5.75;;;3.70;;
52564;SDS011;38460;53.106;7.004;2023-07-29T09:41:01;9.45;;;3.60;;
52564;SDS011;38460;53.106;7.004;2023-07-29T09:43:34;4.82;;;2.97;;
52564;SDS011;38460;53.106;7.004;2023-07-29T09:46:00;3.92;;;2.67;;
52564;SDS011;38460;53.106;7.004;2023-07-29T09:48:27;6.63;;;3.10;;
52564;SDS011;38460;53.106;7.004;2023-07-29T09:50:57;5.75;;;3.60;;
52564;SDS011;38460;53.106;7.004;2023-07-29T09:53:24;3.50;;;2.95;;
52564;SDS011;38460;53.106;7.004;2023-07-29T09:55:49;4.97;;;3.45;;
52564;SDS011;38460;53.106;7.004;2023-07-29T09:58:26;5.45;;;3.17;;
52564;SDS011;38460;53.106;7.004;2023-07-29T10:00:52;6.00;;;3.33;;
52564;SDS011;38460;53.106;7.004;2023-07-29T10:03:21;5.85;;;3.95;;
52564;SDS011;38460;53.106;7.004;2023-07-29T10:05:47;6.03;;;3.08;;
52564;SDS011;38460;53.106;7.004;2023-07-29T10:08:14;5.55;;;3.00;;
52564;SDS011;38460;53.106;7.004;2023-07-29T10:10:43;5.82;;;3.00;;
52564;SDS011;38460;53.106;7.004;2023-07-29T10:13:09;5.22;;;2.30;;
52564;SDS011;38460;53.106;7.004;2023-07-29T10:15:35;3.55;;;1.98;;
52564;SDS011;38460;53.106;7.004;2023-07-29T10:18:01;4.20;;;2.38;;
52564;SDS011;38460;53.106;7.004;2023-07-29T10:20:28;5.68;;;2.63;;
52564;SDS011;38460;53.106;7.004;2023-07-29T10:22:57;5.60;;;2.97;;
52564;SDS011;38460;53.106;7.004;2023-07-29T10:25:25;4.95;;;2.58;;
52564;SDS011;38460;53.106;7.004;2023-07-29T10:28:07;3.63;;;2.60;;
52564;SDS011;38460;53.106;7.004;2023-07-29T10:30:37;3.78;;;2.20;;
52564;SDS011;38460;53.106;7.004;2023-07-29T10:33:04;4.40;;;2.13;;
52564;SDS011;38460;53.106;7.004;2023-07-29T10:35:34;4.63;;;2.10;;
52564;SDS011;38460;53.106;7.004;2023-07-29T10:38:00;3.22;;;2.08;;
52564;SDS011;38460;53.106;7.004;2023-07-29T10:40:43;4.03;;;1.90;;
52564;SDS011;38460;53.106;7.004;2023-07-29T10:43:13;4.85;;;2.80;;
52564;SDS011;38460;53.106;7.004;2023-07-29T10:45:44;3.83;;;2.50;;
52564;SDS011;38460;53.106;7.004;2023-07-29T10:48:23;3.60;;;2.45;;
52564;SDS011;38460;53.106;7.004;2023-07-29T10:54:03;2.90;;;2.22;;
52564;SDS011;38460;53.106;7.004;2023-07-29T10:56:30;4.30;;;2.40;;
52564;SDS011;38460;53.106;7.004;2023-07-29T11:01:38;3.97;;;2.92;;
52564;SDS011;38460;53.106;7.004;2023-07-29T11:17:46;4.88;;;2.10;;
52564;SDS011;38460;53.106;7.004;2023-07-29T11:20:26;5.10;;;2.03;;
52564;SDS011;38460;53.106;7.004;2023-07-29T11:22:55;3.15;;;1.65;;
52564;SDS011;38460;53.106;7.004;2023-07-29T11:25:23;4.15;;;1.63;;
52564;SDS011;38460;53.106;7.004;2023-07-29T11:27:54;3.17;;;1.52;;
52564;SDS011;38460;53.106;7.004;2023-07-29T11:30:21;5.47;;;1.98;;
52564;SDS011;38460;53.106;7.004;2023-07-29T11:32:54;3.35;;;1.60;;
52564;SDS011;38460;53.106;7.004;2023-07-29T11:35:20;4.32;;;1.95;;
52564;SDS011;38460;53.106;7.004;2023-07-29T11:37:48;3.42;;;2.00;;
52564;SDS011;38460;53.106;7.004;2023-07-29T11:40:19;2.88;;;1.70;;
52564;SDS011;38460;53.106;7.004;2023-07-29T11:42:46;3.58;;;1.98;;
52564;SDS011;38460;53.106;7.004;2023-07-29T11:45:13;4.72;;;1.83;;
52564;SDS011;38460;53.106;7.004;2023-07-29T11:47:39;3.92;;;1.63;;
52564;SDS011;38460;53.106;7.004;2023-07-29T11:50:06;5.35;;;1.70;;
52564;SDS011;38460;53.106;7.004;2023-07-29T11:52:37;3.58;;;1.98;;
52564;SDS011;38460;53.106;7.004;2023-07-29T11:55:04;4.10;;;1.60;;
52564;SDS011;38460;53.106;7.004;2023-07-29T11:57:31;4.18;;;1.45;;
52564;SDS011;38460;53.106;7.004;2023-07-29T12:00:07;3.03;;;1.67;;
52564;SDS011;38460;53.106;7.004;2023-07-29T12:02:36;3.47;;;1.75;;
52564;SDS011;38460;53.106;7.004;2023-07-29T12:05:05;3.03;;;1.40;;
52564;SDS011;38460;53.106;7.004;2023-07-29T12:07:33;3.70;;;1.67;;
52564;SDS011;38460;53.106;7.004;2023-07-29T12:09:59;4.95;;;1.75;;
52564;SDS011;38460;53.106;7.004;2023-07-29T12:12:25;2.38;;;1.50;;
52564;SDS011;38460;53.106;7.004;2023-07-29T12:14:53;3.28;;;1.48;;
52564;SDS011;38460;53.106;7.004;2023-07-29T12:17:20;5.30;;;2.17;;
52564;SDS011;38460;53.106;7.004;2023-07-29T12:19:45;6.15;;;1.65;;
52564;SDS011;38460;53.106;7.004;2023-07-29T12:22:11;2.78;;;1.85;;
52564;SDS011;38460;53.106;7.004;2023-07-29T12:24:38;4.15;;;1.60;;
52564;SDS011;38460;53.106;7.004;2023-07-29T12:27:06;3.00;;;1.50;;
52564;SDS011;38460;53.106;7.004;2023-07-29T12:29:39;3.83;;;1.70;;
52564;SDS011;38460;53.106;7.004;2023-07-29T12:32:06;5.35;;;1.95;;
52564;SDS011;38460;53.106;7.004;2023-07-29T12:34:33;4.47;;;1.90;;
52564;SDS011;38460;53.106;7.004;2023-07-29T12:37:01;4.55;;;1.70;;
52564;SDS011;38460;53.106;7.004;2023-07-29T12:39:29;5.22;;;1.88;;
52564;SDS011;38460;53.106;7.004;2023-07-29T12:41:57;4.47;;;2.05;;
52564;SDS011;38460;53.106;7.004;2023-07-29T12:44:24;4.25;;;2.00;;
52564;SDS011;38460;53.106;7.004;2023-07-29T12:46:53;4.60;;;1.70;;
52564;SDS011;38460;53.106;7.004;2023-07-29T12:49:18;4.68;;;2.42;;
52564;SDS011;38460;53.106;7.004;2023-07-29T12:51:45;5.43;;;2.03;;
52564;SDS011;38460;53.106;7.004;2023-07-29T12:54:11;5.53;;;2.25;;
52564;SDS011;38460;53.106;7.004;2023-07-29T12:56:36;4.35;;;1.90;;
52564;SDS011;38460;53.106;7.004;2023-07-29T12:59:02;5.65;;;2.38;;
52564;SDS011;38460;53.106;7.004;2023-07-29T13:01:28;4.50;;;2.17;;
52564;SDS011;38460;53.106;7.004;2023-07-29T13:03:54;5.72;;;2.30;;
52564;SDS011;38460;53.106;7.004;2023-07-29T13:06:21;5.40;;;2.25;;
52564;SDS011;38460;53.106;7.004;2023-07-29T13:08:47;5.53;;;2.50;;
52564;SDS011;38460;53.106;7.004;2023-07-29T13:11:14;5.50;;;2.28;;
52564;SDS011;38460;53.106;7.004;2023-07-29T13:13:40;5.72;;;2.58;;
52564;SDS011;38460;53.106;7.004;2023-07-29T13:16:06;5.50;;;2.42;;
52564;SDS011;38460;53.106;7.004;2023-07-29T13:18:32;4.72;;;2.13;;
52564;SDS011;38460;53.106;7.004;2023-07-29T13:20:58;4.60;;;2.22;;
52564;SDS011;38460;53.106;7.004;2023-07-29T13:23:25;3.33;;;1.83;;
52564;SDS011;38460;53.106;7.004;2023-07-29T13:25:52;4.30;;;2.30;;
52564;SDS011;38460;53.106;7.004;2023-07-29T13:28:18;4.32;;;2.20;;
52564;SDS011;38460;53.106;7.004;2023-07-29T13:30:44;5.90;;;2.92;;
52564;SDS011;38460;53.106;7.004;2023-07-29T13:33:10;4.68;;;2.10;;
52564;SDS011;38460;53.106;7.004;2023-07-29T13:35:36;5.63;;;1.90;;
52564;SDS011;38460;53.106;7.004;2023-07-29T13:38:01;4.53;;;1.95;;
52564;SDS011;38460;53.106;7.004;2023-07-29T13:40:27;3.85;;;1.75;;
52564;SDS011;38460;53.106;7.004;2023-07-29T13:42:53;4.35;;;1.85;;
52564;SDS011;38460;53.106;7.004;2023-07-29T13:45:19;3.85;;;1.80;;
52564;SDS011;38460;53.106;7.004;2023-07-29T13:47:46;2.50;;;1.20;;
52564;SDS011;38460;53.106;7.004;2023-07-29T13:50:11;5.57;;;1.88;;
52564;SDS011;38460;53.106;7.004;2023-07-29T13:52:37;5.15;;;1.90;;
52564;SDS011;38460;53.106;7.004;2023-07-29T13:55:04;2.72;;;1.65;;
52564;SDS011;38460;53.106;7.004;2023-07-29T13:57:31;2.72;;;1.35;;
52564;SDS011;38460;53.106;7.004;2023-07-29T13:59:57;2.63;;;1.50;;
52564;SDS011;38460;53.106;7.004;2023-07-29T14:02:23;2.38;;;1.42;;
52564;SDS011;38460;53.106;7.004;2023-07-29T14:04:49;3.15;;;1.42;;
52564;SDS011;38460;53.106;7.004;2023-07-29T14:07:14;2.58;;;1.10;;
52564;SDS011;38460;53.106;7.004;2023-07-29T14:09:40;3.42;;;1.15;;
52564;SDS011;38460;53.106;7.004;2023-07-29T14:12:08;4.53;;;1.20;;
52564;SDS011;38460;53.106;7.004;2023-07-29T14:14:37;2.42;;;1.20;;
52564;SDS011;38460;53.106;7.004;2023-07-29T14:17:03;2.80;;;1.30;;
52564;SDS011;38460;53.106;7.004;2023-07-29T14:19:29;5.38;;;1.30;;
52564;SDS011;38460;53.106;7.004;2023-07-29T14:21:56;2.33;;;1.30;;
52564;SDS011;38460;53.106;7.004;2023-07-29T14:24:22;3.53;;;1.40;;
52564;SDS011;38460;53.106;7.004;2023-07-29T14:26:48;3.47;;;1.30;;
52564;SDS011;38460;53.106;7.004;2023-07-29T14:29:13;3.83;;;1.55;;
52564;SDS011;38460;53.106;7.004;2023-07-29T14:31:39;3.42;;;1.27;;
52564;SDS011;38460;53.106;7.004;2023-07-29T14:34:05;2.05;;;1.02;;
52564;SDS011;38460;53.106;7.004;2023-07-29T14:36:31;2.25;;;0.90;;
52564;SDS011;38460;53.106;7.004;2023-07-29T14:38:56;2.28;;;1.10;;
52564;SDS011;38460;53.106;7.004;2023-07-29T14:41:22;2.67;;;0.90;;
52564;SDS011;38460;53.106;7.004;2023-07-29T14:43:48;2.33;;;0.70;;
52564;SDS011;38460;53.106;7.004;2023-07-29T14:46:14;1.33;;;0.55;;
52564;SDS011;38460;53.106;7.004;2023-07-29T14:48:39;1.00;;;0.80;;
52564;SDS011;38460;53.106;7.004;2023-07-29T14:51:05;3.78;;;1.10;;
52564;SDS011;38460;53.106;7.004;2023-07-29T14:53:31;3.67;;;0.80;;
52564;SDS011;38460;53.106;7.004;2023-07-29T14:55:57;2.10;;;1.00;;
52564;SDS011;38460;53.106;7.004;2023-07-29T14:58:22;1.85;;;0.80;;
52564;SDS011;38460;53.106;7.004;2023-07-29T15:00:50;4.40;;;1.10;;
52564;SDS011;38460;53.106;7.004;2023-07-29T15:03:19;3.85;;;1.50;;
52564;SDS011;38460;53.106;7.004;2023-07-29T15:05:45;4.63;;;1.40;;
52564;SDS011;38460;53.106;7.004;2023-07-29T15:08:10;2.65;;;0.93;;
52564;SDS011;38460;53.106;7.004;2023-07-29T15:10:36;0.98;;;0.85;;
52564;SDS011;38460;53.106;7.004;2023-07-29T15:13:02;1.35;;;0.80;;